createdAt,value
2022-08-19T00:00:54.852Z,91853.06
2022-08-19T00:03:22.253Z,91847.47
2022-08-19T00:05:49.534Z,91840.59
2022-08-19T00:08:16.816Z,91844.69
2022-08-19T00:10:44.115Z,91838.53
2022-08-19T00:13:11.422Z,91844.00
2022-08-19T00:15:38.819Z,91836.94
2022-08-19T00:18:06.105Z,91839.47
2022-08-19T00:20:33.379Z,91837.63
2022-08-19T00:23:00.664Z,91837.72
2022-08-19T00:25:30.270Z,91840.38
2022-08-19T00:27:57.875Z,91837.09
2022-08-19T00:30:25.330Z,91844.06
2022-08-19T00:32:52.755Z,91842.13
2022-08-19T00:35:20.135Z,91839.41
2022-08-19T00:37:49.371Z,91852.19
2022-08-19T00:40:16.637Z,91849.47
2022-08-19T00:42:43.933Z,91858.06
2022-08-19T00:45:11.195Z,91856.25
2022-08-19T00:47:38.457Z,91850.44
2022-08-19T00:50:05.757Z,91843.88
2022-08-19T00:52:33.045Z,91851.03
2022-08-19T00:55:00.314Z,91852.06
2022-08-19T00:57:28.760Z,91852.75
2022-08-19T01:00:02.338Z,91863.00
2022-08-19T01:02:30.294Z,91870.47
2022-08-19T01:04:57.594Z,91870.88
2022-08-19T01:07:24.891Z,91867.44
2022-08-19T01:09:52.163Z,91867.56
2022-08-19T01:12:19.447Z,91872.84
2022-08-19T01:14:47.621Z,91872.81
2022-08-19T01:17:14.890Z,91873.28
2022-08-19T01:19:43.941Z,91862.78
2022-08-19T01:22:14.177Z,91847.41
2022-08-19T01:24:49.585Z,91839.16
2022-08-19T01:27:17.326Z,91827.75
2022-08-19T01:29:44.623Z,91825.44
2022-08-19T01:32:11.928Z,91814.88
2022-08-19T01:34:59.171Z,91818.63
2022-08-19T01:37:27.316Z,91813.16
2022-08-19T01:39:54.720Z,91815.03
2022-08-19T01:42:22.039Z,91824.28
2022-08-19T01:44:57.626Z,91816.56
2022-08-19T01:47:24.938Z,91820.22
2022-08-19T01:49:52.212Z,91832.16
2022-08-19T01:52:19.482Z,91825.88
2022-08-19T01:54:46.865Z,91816.66
2022-08-19T01:57:14.124Z,91826.25
2022-08-19T01:59:41.403Z,91822.69
2022-08-19T02:02:08.692Z,91832.75
2022-08-19T02:04:35.958Z,91820.69
2022-08-19T02:07:03.232Z,91819.63
2022-08-19T02:09:30.517Z,91822.41
2022-08-19T02:11:57.786Z,91825.69
2022-08-19T02:14:25.050Z,91829.25
2022-08-19T02:16:52.331Z,91824.13
2022-08-19T02:19:19.593Z,91822.03
2022-08-19T02:21:46.891Z,91831.91
2022-08-19T02:24:14.159Z,91836.31
2022-08-19T02:26:41.442Z,91839.78
2022-08-19T02:29:08.729Z,91843.81
2022-08-19T02:31:35.997Z,91840.06
2022-08-19T02:34:03.269Z,91845.63
2022-08-19T02:36:30.657Z,91854.16
2022-08-19T02:38:57.923Z,91857.66
2022-08-19T02:41:26.816Z,91859.84
2022-08-19T02:44:26.436Z,91859.28
2022-08-19T02:46:41.741Z,91870.34
2022-08-19T02:49:09.036Z,91870.63
2022-08-19T02:51:36.295Z,91875.44
2022-08-19T02:54:03.554Z,91878.50
2022-08-19T02:56:30.839Z,91874.75
2022-08-19T02:58:58.089Z,91876.88
2022-08-19T03:01:26.018Z,91880.91
2022-08-19T03:03:53.306Z,91883.41
2022-08-19T03:06:20.572Z,91880.28
2022-08-19T03:08:47.861Z,91887.34
2022-08-19T03:11:15.123Z,91886.22
2022-08-19T03:13:42.383Z,91889.22
2022-08-19T03:16:09.677Z,91883.69
2022-08-19T03:18:36.939Z,91874.84
2022-08-19T03:21:05.371Z,91880.38
2022-08-19T03:23:32.669Z,91883.97
2022-08-19T03:26:15.606Z,91878.00
2022-08-19T03:28:49.467Z,91881.59
2022-08-19T03:31:43.454Z,91875.94
2022-08-19T03:34:06.501Z,91877.53
2022-08-19T03:36:35.455Z,91869.75
2022-08-19T03:39:02.723Z,91869.31
2022-08-19T03:41:44.305Z,91876.31
2022-08-19T03:44:18.549Z,91886.84
2022-08-19T03:46:46.180Z,91883.59
2022-08-19T03:49:14.270Z,91890.09
2022-08-19T03:51:41.911Z,91892.16
2022-08-19T03:54:09.217Z,91890.38
2022-08-19T03:56:36.493Z,91897.63
2022-08-19T03:59:03.775Z,91896.94
2022-08-19T04:01:35.343Z,91900.41
2022-08-19T04:04:03.465Z,91905.75
2022-08-19T04:06:32.154Z,91907.94
2022-08-19T04:08:59.419Z,91907.31
2022-08-19T04:11:43.158Z,91914.94
2022-08-19T04:14:31.511Z,91916.97
2022-08-19T04:16:58.938Z,91918.16
2022-08-19T04:19:26.211Z,91920.16
2022-08-19T04:21:53.483Z,91915.91
2022-08-19T04:24:20.808Z,91908.03
2022-08-19T04:26:48.086Z,91919.44
2022-08-19T04:29:15.386Z,91917.66
2022-08-19T04:31:42.664Z,91914.81
2022-08-19T04:34:09.940Z,91922.22
2022-08-19T04:36:37.249Z,91923.97
2022-08-19T04:39:04.526Z,91919.91
2022-08-19T04:41:31.792Z,91927.53
2022-08-19T04:44:03.730Z,91926.28
2022-08-19T04:46:40.373Z,91930.50
2022-08-19T04:49:18.144Z,91936.16
2022-08-19T04:51:46.201Z,91936.91
2022-08-19T04:54:13.487Z,91946.81
2022-08-19T04:56:41.084Z,91952.09
2022-08-19T04:59:08.351Z,91950.41
2022-08-19T05:01:35.627Z,91946.97
2022-08-19T05:04:02.932Z,91954.63
2022-08-19T05:06:30.235Z,91944.84
2022-08-19T05:08:57.513Z,91946.69
2022-08-19T05:11:26.666Z,91954.56
2022-08-19T05:13:54.053Z,91949.09
2022-08-19T05:16:21.340Z,91956.03
2022-08-19T05:18:48.828Z,91963.41
2022-08-19T05:21:16.167Z,91968.22
2022-08-19T05:23:43.429Z,91971.50
2022-08-19T05:26:10.706Z,91979.69
2022-08-19T05:28:38.081Z,91974.22
2022-08-19T05:31:05.351Z,91973.81
2022-08-19T05:33:32.615Z,91987.44
2022-08-19T05:35:59.902Z,91980.09
2022-08-19T05:38:29.205Z,91983.44
2022-08-19T05:40:56.487Z,91992.75
2022-08-19T05:43:23.775Z,91987.66
2022-08-19T05:45:51.052Z,91986.66
2022-08-19T05:48:18.319Z,91991.13
2022-08-19T05:50:45.595Z,91991.00
2022-08-19T05:53:12.889Z,91999.84
2022-08-19T05:55:40.164Z,92005.28
2022-08-19T05:58:07.466Z,91992.69
2022-08-19T06:00:34.746Z,92004.72
2022-08-19T06:03:02.040Z,92002.44
2022-08-19T06:05:46.250Z,92000.97
2022-08-19T06:08:17.505Z,92004.34
2022-08-19T06:10:44.771Z,92013.91
2022-08-19T06:13:12.051Z,92009.03
2022-08-19T06:15:39.346Z,92009.75
2022-08-19T06:18:06.619Z,92003.47
2022-08-19T06:20:54.617Z,92003.00
2022-08-19T06:23:21.133Z,92000.38
2022-08-19T06:25:51.609Z,92008.22
2022-08-19T06:28:19.204Z,92010.44
2022-08-19T06:30:46.690Z,92019.13
2022-08-19T06:33:13.967Z,92015.66
2022-08-19T06:35:41.318Z,92013.69
2022-08-19T06:38:08.663Z,92013.84
2022-08-19T06:40:35.962Z,92020.00
2022-08-19T06:43:03.678Z,92032.06
2022-08-19T06:45:34.465Z,92034.00
2022-08-19T06:48:03.264Z,92037.28
2022-08-19T06:50:30.725Z,92033.84
2022-08-19T06:52:58.005Z,92035.78
2022-08-19T06:55:27.049Z,92034.97
2022-08-19T06:57:54.763Z,92031.53
2022-08-19T07:00:22.208Z,92033.75
2022-08-19T07:02:54.640Z,92036.44
2022-08-19T07:05:25.924Z,92042.38
2022-08-19T07:07:53.228Z,92047.34
2022-08-19T07:10:20.498Z,92040.75
2022-08-19T07:12:47.773Z,92045.47
2022-08-19T07:15:15.064Z,92046.53
2022-08-19T07:17:42.346Z,92057.66
2022-08-19T07:20:11.734Z,92047.59
2022-08-19T07:22:39.051Z,92049.84
2022-08-19T07:25:06.335Z,92055.47
2022-08-19T07:27:33.874Z,92051.97
2022-08-19T07:30:01.221Z,92054.09
2022-08-19T07:32:28.517Z,92054.78
2022-08-19T07:34:56.345Z,92055.47
2022-08-19T07:37:24.162Z,92060.53
2022-08-19T07:39:51.467Z,92056.00
2022-08-19T07:42:18.810Z,92056.72
2022-08-19T07:44:50.680Z,92056.94
2022-08-19T07:47:50.260Z,92056.53
2022-08-19T07:50:05.574Z,92063.59
2022-08-19T07:52:35.132Z,92066.06
2022-08-19T07:55:02.407Z,92067.75
2022-08-19T07:57:29.849Z,92066.72
2022-08-19T07:59:57.136Z,92064.88
2022-08-19T08:02:24.407Z,92074.88
2022-08-19T08:04:51.698Z,92073.06
2022-08-19T08:07:18.991Z,92075.28
2022-08-19T08:09:49.727Z,92077.59
2022-08-19T08:12:33.520Z,92081.56
2022-08-19T08:15:01.277Z,92081.34
2022-08-19T08:17:31.011Z,92077.91
2022-08-19T08:20:15.886Z,92084.03
2022-08-19T08:22:43.159Z,92085.47
2022-08-19T08:25:10.427Z,92089.94
2022-08-19T08:27:37.720Z,92091.75
2022-08-19T08:30:04.987Z,92088.31
2022-08-19T08:32:32.270Z,92101.22
2022-08-19T08:34:59.577Z,92100.03
2022-08-19T08:37:26.874Z,92097.28
2022-08-19T08:39:54.323Z,92106.88
2022-08-19T08:42:21.638Z,92104.44
2022-08-19T08:44:48.938Z,92113.06
2022-08-19T08:47:17.065Z,92110.56
2022-08-19T08:49:44.353Z,92116.78
2022-08-19T08:52:11.803Z,92120.25
2022-08-19T08:54:39.413Z,92120.84
2022-08-19T08:57:06.717Z,92118.53
2022-08-19T08:59:34.024Z,92122.09
2022-08-19T09:02:01.423Z,92124.06
2022-08-19T09:04:28.742Z,92129.00
2022-08-19T09:06:56.056Z,92130.81
2022-08-19T09:09:23.375Z,92126.00
2022-08-19T09:11:58.309Z,92135.59
2022-08-19T09:14:49.220Z,92138.41
2022-08-19T09:17:13.607Z,92137.06
2022-08-19T09:19:40.906Z,92137.78
2022-08-19T09:22:08.697Z,92152.91
2022-08-19T09:24:37.927Z,92152.09
2022-08-19T09:27:18.221Z,92159.81
2022-08-19T09:29:46.123Z,92162.28
2022-08-19T09:32:26.307Z,92160.13
2022-08-19T09:34:54.455Z,92164.81
2022-08-19T09:37:21.747Z,92171.75
2022-08-19T09:39:52.233Z,92170.84
2022-08-19T09:42:29.756Z,92170.34
2022-08-19T09:44:57.433Z,92180.13
2022-08-19T09:47:27.331Z,92173.09
2022-08-19T09:49:54.614Z,92177.03
2022-08-19T09:52:21.913Z,92178.09
2022-08-19T09:54:52.004Z,92178.16
2022-08-19T09:57:19.398Z,92178.50
2022-08-19T09:59:46.679Z,92178.38
2022-08-19T10:02:13.998Z,92182.22
2022-08-19T10:04:49.671Z,92184.91
2022-08-19T10:07:16.953Z,92175.59
2022-08-19T10:09:45.150Z,92180.59
2022-08-19T10:12:14.062Z,92174.78
2022-08-19T10:14:45.166Z,92185.31
2022-08-19T10:17:19.399Z,92181.88
2022-08-19T10:19:53.396Z,92182.53
2022-08-19T10:22:23.361Z,92186.94
2022-08-19T10:24:52.851Z,92191.44
2022-08-19T10:27:20.145Z,92186.72
2022-08-19T10:29:47.526Z,92196.47
2022-08-19T10:32:15.328Z,92187.72
2022-08-19T10:34:48.294Z,92198.84
2022-08-19T10:37:23.477Z,92199.28
2022-08-19T10:39:51.444Z,92200.22
2022-08-19T10:42:18.807Z,92203.44
2022-08-19T10:44:46.097Z,92204.84
2022-08-19T10:47:17.492Z,92209.41
2022-08-19T10:49:52.118Z,92208.00
2022-08-19T10:52:20.700Z,92215.72
2022-08-19T10:54:50.106Z,92205.16
2022-08-19T10:57:17.395Z,92198.91
2022-08-19T10:59:44.706Z,92206.81
2022-08-19T11:02:12.008Z,92202.19
2022-08-19T11:04:39.338Z,92196.53
2022-08-19T11:07:06.797Z,92204.84
2022-08-19T11:09:34.636Z,92202.34
2022-08-19T11:12:02.663Z,92200.56
2022-08-19T11:14:32.185Z,92202.13
2022-08-19T11:17:01.558Z,92208.22
2022-08-19T11:19:28.859Z,92206.50
2022-08-19T11:21:57.687Z,92203.66
2022-08-19T11:24:27.513Z,92204.03
2022-08-19T11:26:54.826Z,92200.91
2022-08-19T11:29:22.133Z,92205.91
2022-08-19T11:31:49.428Z,92204.72
2022-08-19T11:34:16.750Z,92208.13
2022-08-19T11:36:44.044Z,92210.16
2022-08-19T11:39:11.331Z,92210.09
2022-08-19T11:41:38.645Z,92214.13
2022-08-19T11:44:05.947Z,92211.09
2022-08-19T11:46:33.235Z,92217.19
2022-08-19T11:49:00.554Z,92219.66
2022-08-19T11:51:27.849Z,92227.94
2022-08-19T11:53:55.155Z,92223.56
2022-08-19T11:56:22.447Z,92228.03
2022-08-19T11:58:49.750Z,92224.63
2022-08-19T12:01:17.091Z,92232.13
2022-08-19T12:03:44.495Z,92234.94
2022-08-19T12:06:11.831Z,92231.50
2022-08-19T12:08:41.074Z,92228.84
2022-08-19T12:11:08.365Z,92226.53
2022-08-19T12:13:35.687Z,92223.47
2022-08-19T12:16:03.025Z,92229.00
2022-08-19T12:18:30.330Z,92223.91
2022-08-19T12:20:57.666Z,92225.47
2022-08-19T12:23:25.080Z,92213.06
2022-08-19T12:25:52.376Z,92219.19
2022-08-19T12:28:19.668Z,92220.88
2022-08-19T12:30:46.978Z,92221.41
2022-08-19T12:33:14.293Z,92216.97
2022-08-19T12:35:45.492Z,92230.56
2022-08-19T12:38:13.020Z,92224.44
2022-08-19T12:40:42.412Z,92230.28
2022-08-19T12:43:09.704Z,92229.22
2022-08-19T12:45:37.092Z,92234.88
2022-08-19T12:48:33.656Z,92236.50
2022-08-19T12:50:52.188Z,92236.09
2022-08-19T12:53:19.515Z,92236.25
2022-08-19T12:55:46.801Z,92236.56
2022-08-19T12:58:14.092Z,92241.69
2022-08-19T13:00:41.466Z,92243.16
2022-08-19T13:03:08.790Z,92241.38
2022-08-19T13:05:36.094Z,92243.56
2022-08-19T13:08:03.385Z,92235.44
2022-08-19T13:10:30.677Z,92245.22
2022-08-19T13:13:00.356Z,92237.88
2022-08-19T13:15:27.663Z,92237.94
2022-08-19T13:17:55.098Z,92238.13
2022-08-19T13:20:22.445Z,92239.69
2022-08-19T13:22:49.750Z,92232.50
2022-08-19T13:25:17.033Z,92238.63
2022-08-19T13:27:44.319Z,92233.53
2022-08-19T13:30:11.637Z,92239.75
2022-08-19T13:32:38.954Z,92242.56
2022-08-19T13:35:12.718Z,92241.94
2022-08-19T13:37:42.209Z,92236.13
2022-08-19T13:40:09.529Z,92232.41
2022-08-19T13:42:36.850Z,92230.59
2022-08-19T13:45:06.165Z,92227.34
2022-08-19T13:47:33.449Z,92226.13
2022-08-19T13:50:00.775Z,92222.41
2022-08-19T13:52:28.079Z,92219.19
2022-08-19T13:54:55.377Z,92215.06
2022-08-19T13:57:22.684Z,92209.47
2022-08-19T13:59:49.982Z,92207.03
2022-08-19T14:02:17.281Z,92218.03
2022-08-19T14:04:44.597Z,92223.22
2022-08-19T14:07:11.907Z,92224.38
2022-08-19T14:09:39.209Z,92223.50
2022-08-19T14:12:06.491Z,92219.75
2022-08-19T14:14:33.815Z,92239.59
2022-08-19T14:17:01.111Z,92232.81
2022-08-19T14:19:30.128Z,92227.88
2022-08-19T14:21:57.520Z,92237.63
2022-08-19T14:24:24.810Z,92233.38
2022-08-19T14:26:52.309Z,92234.31
2022-08-19T14:29:19.659Z,92234.94
2022-08-19T14:31:46.959Z,92225.00
2022-08-19T14:34:14.274Z,92226.25
2022-08-19T14:36:41.564Z,92228.84
2022-08-19T14:39:08.862Z,92222.19
2022-08-19T14:41:36.171Z,92221.59
2022-08-19T14:44:03.475Z,92225.22
2022-08-19T14:46:30.881Z,92227.44
2022-08-19T14:48:59.974Z,92236.13
2022-08-19T14:51:27.596Z,92233.59
2022-08-19T14:53:54.908Z,92233.41
2022-08-19T14:56:22.197Z,92236.03
2022-08-19T14:58:49.526Z,92235.34
2022-08-19T15:01:16.935Z,92232.03
2022-08-19T15:03:44.282Z,92234.72
2022-08-19T15:06:12.760Z,92242.34
2022-08-19T15:08:40.468Z,92243.13
2022-08-19T15:11:07.773Z,92249.94
2022-08-19T15:13:35.057Z,92255.69
2022-08-19T15:16:02.347Z,92260.69
2022-08-19T15:18:29.661Z,92262.00
2022-08-19T15:20:56.982Z,92267.63
2022-08-19T15:23:24.291Z,92267.16
2022-08-19T15:25:51.704Z,92263.03
2022-08-19T15:28:18.993Z,92265.94
2022-08-19T15:30:46.283Z,92266.78
2022-08-19T15:33:13.597Z,92270.72
2022-08-19T15:35:40.898Z,92275.94
2022-08-19T15:38:08.187Z,92269.38
2022-08-19T15:40:35.501Z,92271.00
2022-08-19T15:43:02.798Z,92269.31
2022-08-19T15:45:32.274Z,92265.50
2022-08-19T15:47:59.729Z,92269.31
2022-08-19T15:50:27.017Z,92268.75
2022-08-19T15:52:54.325Z,92266.63
2022-08-19T15:55:32.296Z,92265.13
2022-08-19T15:58:01.155Z,92263.13
2022-08-19T16:00:28.492Z,92264.94
2022-08-19T16:02:55.795Z,92268.63
2022-08-19T16:05:23.079Z,92265.28
2022-08-19T16:07:50.408Z,92266.97
2022-08-19T16:10:27.033Z,92268.75
2022-08-19T16:12:54.985Z,92265.91
2022-08-19T16:15:22.423Z,92272.31
2022-08-19T16:17:56.526Z,92272.22
2022-08-19T16:20:24.792Z,92280.63
2022-08-19T16:22:52.557Z,92277.53
2022-08-19T16:25:19.881Z,92273.38
2022-08-19T16:28:06.455Z,92285.25
2022-08-19T16:30:34.454Z,92284.91
2022-08-19T16:33:01.753Z,92281.69
2022-08-19T16:35:29.188Z,92276.84
2022-08-19T16:37:56.631Z,92283.00
2022-08-19T16:40:24.070Z,92286.53
2022-08-19T16:42:51.386Z,92287.06
2022-08-19T16:45:18.672Z,92292.16
2022-08-19T16:47:45.963Z,92283.25
2022-08-19T16:50:13.286Z,92288.66
2022-08-19T16:52:40.567Z,92291.56
2022-08-19T16:55:07.861Z,92286.31
2022-08-19T16:57:35.171Z,92285.38
2022-08-19T17:00:02.473Z,92283.03
2022-08-19T17:02:30.496Z,92286.34
2022-08-19T17:04:59.030Z,92286.66
2022-08-19T17:07:26.667Z,92286.25
2022-08-19T17:09:53.987Z,92288.28
2022-08-19T17:12:22.587Z,92279.78
2022-08-19T17:14:57.993Z,92284.31
2022-08-19T17:17:28.947Z,92278.28
2022-08-19T17:19:56.736Z,92276.78
2022-08-19T17:22:24.034Z,92281.81
2022-08-19T17:24:51.339Z,92279.91
2022-08-19T17:27:19.137Z,92281.41
2022-08-19T17:29:47.234Z,92280.63
2022-08-19T17:32:14.634Z,92285.19
2022-08-19T17:34:41.940Z,92277.00
2022-08-19T17:37:09.257Z,92277.00
2022-08-19T17:39:39.000Z,92275.50
2022-08-19T17:42:07.073Z,92286.22
2022-08-19T17:44:35.548Z,92284.84
2022-08-19T17:47:02.831Z,92277.22
2022-08-19T17:49:30.141Z,92273.41
2022-08-19T17:51:59.969Z,92272.63
2022-08-19T17:54:33.223Z,92278.88
2022-08-19T17:57:01.384Z,92274.47
2022-08-19T17:59:30.184Z,92278.75
2022-08-19T18:01:57.717Z,92276.81
2022-08-19T18:04:25.296Z,92277.66
2022-08-19T18:06:54.328Z,92286.13
2022-08-19T18:09:24.062Z,92293.06
2022-08-19T18:11:52.599Z,92292.69
2022-08-19T18:14:20.406Z,92301.13
2022-08-19T18:16:47.713Z,92302.28
2022-08-19T18:19:15.003Z,92295.44
2022-08-19T18:21:42.320Z,92289.31
2022-08-19T18:24:09.634Z,92298.00
2022-08-19T18:26:36.945Z,92298.69
2022-08-19T18:29:04.223Z,92303.31
2022-08-19T18:31:31.537Z,92300.72
2022-08-19T18:33:58.861Z,92305.22
2022-08-19T18:36:52.112Z,92318.22
2022-08-19T18:39:13.404Z,92322.81
2022-08-19T18:41:41.008Z,92319.94
2022-08-19T18:44:08.305Z,92322.84
2022-08-19T18:46:36.923Z,92322.16
2022-08-19T18:49:04.369Z,92327.78
2022-08-19T18:51:31.669Z,92330.47
2022-08-19T18:53:59.084Z,92332.38
2022-08-19T18:56:26.525Z,92330.97
2022-08-19T18:58:53.804Z,92335.34
2022-08-19T19:01:21.171Z,92337.19
2022-08-19T19:03:48.477Z,92341.16
2022-08-19T19:06:15.755Z,92342.63
2022-08-19T19:08:45.144Z,92335.53
2022-08-19T19:11:12.428Z,92338.06
2022-08-19T19:13:39.723Z,92345.66
2022-08-19T19:16:07.038Z,92352.41
2022-08-19T19:18:34.323Z,92347.91
2022-08-19T19:21:01.615Z,92352.22
2022-08-19T19:23:28.928Z,92346.81
2022-08-19T19:25:56.208Z,92353.03
2022-08-19T19:28:23.489Z,92356.13
2022-08-19T19:30:50.801Z,92358.41
2022-08-19T19:33:18.074Z,92359.88
2022-08-19T19:35:47.148Z,92366.25
2022-08-19T19:38:14.654Z,92360.34
2022-08-19T19:40:41.970Z,92368.41
2022-08-19T19:43:09.277Z,92363.97
2022-08-19T19:45:36.565Z,92360.97
2022-08-19T19:48:03.880Z,92361.91
2022-08-19T19:50:31.198Z,92357.84
2022-08-19T19:52:58.494Z,92369.41
2022-08-19T19:55:25.774Z,92368.44
2022-08-19T19:57:53.081Z,92379.03
2022-08-19T20:00:20.351Z,92376.78
2022-08-19T20:02:50.117Z,92380.75
2022-08-19T20:05:17.891Z,92382.25
2022-08-19T20:07:45.171Z,92375.31
2022-08-19T20:10:12.481Z,92382.19
2022-08-19T20:12:39.774Z,92378.97
2022-08-19T20:15:07.057Z,92384.16
2022-08-19T20:17:34.366Z,92384.41
2022-08-19T20:20:01.671Z,92392.50
2022-08-19T20:22:28.966Z,92391.44
2022-08-19T20:25:01.251Z,92388.94
2022-08-19T20:27:29.292Z,92393.22
2022-08-19T20:29:58.546Z,92387.94
2022-08-19T20:32:25.829Z,92395.72
2022-08-19T20:34:53.121Z,92387.81
2022-08-19T20:37:20.423Z,92391.88
2022-08-19T20:39:47.800Z,92391.47
2022-08-19T20:42:15.121Z,92393.13
2022-08-19T20:44:42.402Z,92389.56
2022-08-19T20:47:09.716Z,92390.88
2022-08-19T20:49:37.006Z,92391.34
2022-08-19T20:52:04.310Z,92392.94
2022-08-19T20:54:31.583Z,92393.78
2022-08-19T20:56:58.899Z,92390.56
2022-08-19T20:59:26.182Z,92392.19
2022-08-19T21:01:53.459Z,92387.81
2022-08-19T21:04:20.781Z,92389.25
2022-08-19T21:06:48.055Z,92390.63
2022-08-19T21:09:15.361Z,92383.38
2022-08-19T21:11:42.639Z,92381.03
2022-08-19T21:14:09.949Z,92379.22
2022-08-19T21:16:37.235Z,92370.50
2022-08-19T21:19:04.550Z,92376.03
2022-08-19T21:21:31.873Z,92378.97
2022-08-19T21:23:59.190Z,92379.13
2022-08-19T21:26:26.481Z,92383.75
2022-08-19T21:28:53.763Z,92378.72
2022-08-19T21:31:21.073Z,92381.25
2022-08-19T21:33:48.367Z,92378.47
2022-08-19T21:36:15.651Z,92387.19
2022-08-19T21:38:43.040Z,92387.31
2022-08-19T21:41:10.313Z,92383.91
2022-08-19T21:43:37.618Z,92391.84
2022-08-19T21:46:04.925Z,92392.16
2022-08-19T21:48:32.214Z,92387.47
2022-08-19T21:50:59.498Z,92385.63
2022-08-19T21:53:34.202Z,92376.81
2022-08-19T21:56:01.995Z,92377.13
2022-08-19T21:58:31.294Z,92372.03
2022-08-19T22:00:58.687Z,92378.59
2022-08-19T22:03:26.133Z,92383.47
2022-08-19T22:05:53.411Z,92382.34
2022-08-19T22:08:20.698Z,92381.34
2022-08-19T22:10:48.016Z,92371.72
2022-08-19T22:13:15.303Z,92383.28
2022-08-19T22:15:44.605Z,92386.31
2022-08-19T22:18:11.887Z,92387.81
2022-08-19T22:20:39.191Z,92388.31
2022-08-19T22:23:06.484Z,92387.97
2022-08-19T22:25:33.900Z,92382.22
2022-08-19T22:28:01.831Z,92385.19
2022-08-19T22:30:33.127Z,92382.41
2022-08-19T22:33:00.907Z,92381.91
2022-08-19T22:35:28.181Z,92389.53
2022-08-19T22:37:55.649Z,92378.38
2022-08-19T22:40:23.072Z,92384.66
2022-08-19T22:42:50.363Z,92383.59
2022-08-19T22:45:17.639Z,92380.84
2022-08-19T22:47:44.950Z,92379.66
2022-08-19T22:50:14.032Z,92381.16
2022-08-19T22:52:41.400Z,92367.25
2022-08-19T22:55:19.562Z,92377.19
2022-08-19T22:57:46.856Z,92374.84
2022-08-19T23:00:14.132Z,92373.88
2022-08-19T23:02:51.627Z,92365.28
2022-08-19T23:05:21.899Z,92364.16
2022-08-19T23:07:52.316Z,92362.84
2022-08-19T23:10:23.241Z,92364.22
2022-08-19T23:12:56.978Z,92367.75
2022-08-19T23:15:24.277Z,92364.44
2022-08-19T23:17:51.583Z,92363.84
2022-08-19T23:20:18.905Z,92359.31
2022-08-19T23:22:46.192Z,92360.16
2022-08-19T23:25:13.473Z,92355.88
2022-08-19T23:27:40.774Z,92365.28
2022-08-19T23:30:08.045Z,92359.75
2022-08-19T23:32:35.340Z,92363.84
2022-08-19T23:35:02.649Z,92356.56
2022-08-19T23:37:29.931Z,92359.31
2022-08-19T23:39:57.270Z,92361.41
2022-08-19T23:42:24.641Z,92351.53
2022-08-19T23:44:53.035Z,92356.03
2022-08-19T23:47:20.435Z,92360.28
2022-08-19T23:49:47.841Z,92353.84
2022-08-19T23:52:15.148Z,92351.22
2022-08-19T23:54:43.589Z,92355.03
2022-08-19T23:57:13.182Z,92354.28
2022-08-19T23:59:41.432Z,92351.06
